Time;durP1;ratioP1;P1;durP2;ratioP2;P2;SDS_P1;SDS_P2;PMS_P1;PMS_P2;Temp;Humidity;BMP_temperature;BMP_pressure;BME280_temperature;BME280_humidity;BME280_pressure;Samples;Min_cycle;Max_cycle;Signal;HPM_P1;HPM_P2
2021/12/21 00:02:02;;;;;;;63.42;33.28;;;;;;;;;;4996540;28;20061;-61
2021/12/21 00:04:28;;;;;;;61.20;34.40;;;;;;;;;;4997521;28;20093;-61
2021/12/21 00:06:54;;;;;;;75.55;36.00;;;;;;;;;;5001264;28;20404;-61
2021/12/21 00:09:20;;;;;;;68.60;32.67;;;;;;;;;;4999817;28;20050;-61
2021/12/21 00:11:48;;;;;;;60.78;31.88;;;;;;;;;;5002416;28;20516;-60
2021/12/21 00:14:25;;;;;;;65.00;30.35;;;;;;;;;;4997829;28;20511;-61
2021/12/21 00:17:12;;;;;;;75.22;33.00;;;;;;;;;;4999686;28;20050;-60
2021/12/21 00:22:56;;;;;;;61.33;31.98;;;;;;;;;;5001694;28;20574;-60
2021/12/21 00:25:11;;;;;;;70.22;34.05;;;;;;;;;;4999735;28;20492;-61
2021/12/21 00:27:37;;;;;;;63.63;33.88;;;;;;;;;;4999118;28;20042;-61
2021/12/21 00:30:04;;;;;;;52.97;29.95;;;;;;;;;;4997907;28;20042;-62
2021/12/21 00:32:30;;;;;;;58.70;30.98;;;;;;;;;;4994243;28;20084;-61
2021/12/21 00:34:56;;;;;;;59.25;32.30;;;;;;;;;;4980301;28;20046;-62
2021/12/21 00:37:22;;;;;;;53.08;31.35;;;;;;;;;;4997697;28;20038;-62
2021/12/21 00:39:49;;;;;;;71.63;35.80;;;;;;;;;;4998288;28;20034;-62
2021/12/21 00:42:15;;;;;;;64.82;34.92;;;;;;;;;;5002248;28;20037;-62
2021/12/21 00:44:41;;;;;;;61.70;33.17;;;;;;;;;;5005263;28;20034;-62
2021/12/21 00:47:07;;;;;;;66.68;33.97;;;;;;;;;;4998872;28;20038;-62
2021/12/21 00:49:35;;;;;;;58.40;33.30;;;;;;;;;;4994058;28;20073;-62
2021/12/21 00:52:01;;;;;;;54.10;32.60;;;;;;;;;;4980765;28;20053;-62
2021/12/21 00:54:27;;;;;;;59.28;32.47;;;;;;;;;;5001073;28;20044;-61
2021/12/21 00:56:53;;;;;;;60.00;31.08;;;;;;;;;;4993961;28;20096;-61
2021/12/21 00:59:19;;;;;;;68.93;34.22;;;;;;;;;;4992145;28;20049;-62
2021/12/21 01:01:46;;;;;;;54.67;31.00;;;;;;;;;;4998299;28;20120;-62
2021/12/21 01:04:25;;;;;;;59.00;34.80;;;;;;;;;;4992785;28;20034;-62
2021/12/21 01:07:03;;;;;;;60.03;33.17;;;;;;;;;;4993745;28;20073;-62
2021/12/21 01:12:12;;;;;;;57.50;32.15;;;;;;;;;;5018025;28;20081;-62
2021/12/21 01:15:10;;;;;;;53.60;32.08;;;;;;;;;;4998157;28;20052;-62
2021/12/21 01:17:50;;;;;;;55.47;29.75;;;;;;;;;;4995014;28;20533;-62
2021/12/21 01:21:20;;;;;;;54.63;30.35;;;;;;;;;;4993271;28;20093;-62
2021/12/21 01:25:59;;;;;;;44.15;25.55;;;;;;;;;;4998466;28;20046;-62
2021/12/21 01:31:22;;;;;;;57.00;31.38;;;;;;;;;;4993019;28;20046;-62
2021/12/21 01:36:29;;;;;;;47.05;26.98;;;;;;;;;;4996067;28;20412;-60
2021/12/21 01:44:08;;;;;;;55.63;32.03;;;;;;;;;;4997622;28;20092;-60
2021/12/21 01:49:34;;;;;;;46.67;26.23;;;;;;;;;;4992219;28;20137;-62
2021/12/21 01:52:00;;;;;;;49.60;26.88;;;;;;;;;;4998361;28;20424;-62
2021/12/21 01:54:26;;;;;;;61.30;32.00;;;;;;;;;;4997251;28;20034;-62
2021/12/21 01:56:53;;;;;;;54.08;33.28;;;;;;;;;;5001627;28;20116;-62
2021/12/21 01:59:19;;;;;;;57.20;30.85;;;;;;;;;;5003829;28;20124;-61
2021/12/21 02:01:45;;;;;;;57.72;31.85;;;;;;;;;;4995535;28;20058;-62
2021/12/21 02:04:17;;;;;;;58.50;34.67;;;;;;;;;;4999202;28;20053;-62
2021/12/21 02:06:44;;;;;;;56.38;35.83;;;;;;;;;;4996294;28;20034;-62
2021/12/21 02:09:10;;;;;;;60.58;37.25;;;;;;;;;;4994556;28;20042;-62
2021/12/21 02:11:36;;;;;;;55.38;33.92;;;;;;;;;;4997309;28;20054;-61
2021/12/21 02:14:05;;;;;;;56.88;31.38;;;;;;;;;;4998000;28;20094;-62
2021/12/21 02:19:43;;;;;;;47.90;29.80;;;;;;;;;;4982917;28;20050;-62
2021/12/21 02:22:14;;;;;;;54.60;34.45;;;;;;;;;;4993889;28;20042;-62
2021/12/21 02:24:50;;;;;;;62.53;31.77;;;;;;;;;;4996965;28;20461;-61
2021/12/21 02:27:30;;;;;;;56.78;33.38;;;;;;;;;;4980652;28;20387;-62
2021/12/21 02:29:56;;;;;;;55.40;31.83;;;;;;;;;;4997256;28;20109;-61
2021/12/21 02:32:23;;;;;;;55.17;34.17;;;;;;;;;;4994223;28;20073;-61
2021/12/21 02:34:50;;;;;;;59.63;33.25;;;;;;;;;;4999230;28;20120;-59
2021/12/21 02:37:16;;;;;;;51.47;32.03;;;;;;;;;;4992887;28;20095;-59
2021/12/21 02:39:42;;;;;;;54.13;33.10;;;;;;;;;;5000124;28;20050;-61
2021/12/21 02:42:08;;;;;;;54.50;33.92;;;;;;;;;;4994610;28;20031;-60
2021/12/21 02:44:35;;;;;;;54.20;32.75;;;;;;;;;;5001096;28;20038;-59
2021/12/21 02:47:01;;;;;;;57.92;36.53;;;;;;;;;;4997833;28;20105;-60
2021/12/21 02:49:27;;;;;;;67.35;33.47;;;;;;;;;;5003671;28;20133;-60
2021/12/21 02:51:53;;;;;;;59.75;33.45;;;;;;;;;;4997105;28;20050;-59
2021/12/21 02:54:20;;;;;;;54.92;33.75;;;;;;;;;;4999806;28;20038;-59
2021/12/21 02:56:47;;;;;;;54.47;31.35;;;;;;;;;;5002320;28;20104;-59
2021/12/21 02:59:13;;;;;;;52.17;30.02;;;;;;;;;;4998844;28;20101;-61
2021/12/21 03:01:39;;;;;;;58.85;30.15;;;;;;;;;;5002336;28;20115;-60
2021/12/21 03:04:07;;;;;;;51.55;28.73;;;;;;;;;;5007588;28;20042;-60
2021/12/21 03:09:26;;;;;;;55.85;30.50;;;;;;;;;;5001762;28;20089;-60
2021/12/21 03:12:11;;;;;;;52.70;30.55;;;;;;;;;;4998803;28;20073;-60
2021/12/21 03:14:37;;;;;;;51.95;27.75;;;;;;;;;;4999149;28;20054;-60
2021/12/21 03:17:04;;;;;;;53.00;30.02;;;;;;;;;;5001755;28;20042;-60
2021/12/21 03:19:30;;;;;;;54.58;30.55;;;;;;;;;;4996751;28;20073;-61
2021/12/21 03:21:56;;;;;;;57.20;30.92;;;;;;;;;;5004101;28;20042;-61
2021/12/21 03:24:22;;;;;;;44.65;29.60;;;;;;;;;;5000393;28;20080;-61
2021/12/21 03:26:50;;;;;;;46.40;30.70;;;;;;;;;;5001768;28;20034;-61
2021/12/21 03:29:16;;;;;;;52.95;29.42;;;;;;;;;;5000162;28;20093;-60
2021/12/21 03:31:42;;;;;;;51.60;30.52;;;;;;;;;;5002083;28;20050;-60
2021/12/21 03:34:08;;;;;;;51.30;30.40;;;;;;;;;;5003321;28;20044;-60
2021/12/21 03:36:34;;;;;;;53.10;31.30;;;;;;;;;;4997853;28;20045;-61
2021/12/21 03:39:06;;;;;;;56.70;31.40;;;;;;;;;;5003813;28;20042;-60
2021/12/21 03:41:33;;;;;;;62.92;31.48;;;;;;;;;;4997892;28;20088;-60
2021/12/21 03:44:01;;;;;;;51.38;30.48;;;;;;;;;;4999648;28;20030;-60
2021/12/21 03:46:28;;;;;;;46.22;26.50;;;;;;;;;;5005284;28;20046;-60
2021/12/21 03:48:54;;;;;;;58.83;32.08;;;;;;;;;;5001297;28;20126;-60
2021/12/21 03:51:21;;;;;;;62.17;32.75;;;;;;;;;;5000849;28;20420;-59
2021/12/21 03:53:47;;;;;;;61.80;33.90;;;;;;;;;;4993251;28;20111;-59
2021/12/21 03:58:49;;;;;;;65.07;32.35;;;;;;;;;;4994957;28;20100;-60
2021/12/21 04:01:16;;;;;;;59.00;32.03;;;;;;;;;;4983283;28;20041;-60
2021/12/21 04:03:42;;;;;;;73.40;37.47;;;;;;;;;;4995426;28;20485;-61
2021/12/21 04:06:08;;;;;;;64.97;34.05;;;;;;;;;;5004883;28;20050;-60
2021/12/21 04:08:34;;;;;;;61.47;34.85;;;;;;;;;;4995631;28;20045;-60
2021/12/21 04:11:01;;;;;;;63.05;34.22;;;;;;;;;;4999221;28;20073;-59
2021/12/21 04:13:29;;;;;;;57.53;35.08;;;;;;;;;;5002681;28;20500;-61
2021/12/21 04:15:55;;;;;;;59.28;34.25;;;;;;;;;;4996727;28;20042;-62
2021/12/21 04:18:23;;;;;;;65.28;38.42;;;;;;;;;;4995407;28;20034;-62
2021/12/21 04:20:50;;;;;;;62.40;34.72;;;;;;;;;;4999415;28;20424;-61
2021/12/21 04:23:16;;;;;;;65.18;36.08;;;;;;;;;;5000924;28;20092;-61
2021/12/21 04:25:42;;;;;;;65.55;36.58;;;;;;;;;;4998485;28;20038;-61
2021/12/21 04:28:09;;;;;;;62.20;34.15;;;;;;;;;;4998967;28;20042;-61
2021/12/21 04:30:35;;;;;;;70.28;37.88;;;;;;;;;;5002418;28;20049;-62
2021/12/21 04:33:01;;;;;;;60.28;34.58;;;;;;;;;;5000297;28;20037;-61
2021/12/21 04:35:27;;;;;;;61.35;35.63;;;;;;;;;;4993666;28;20515;-61
2021/12/21 04:38:01;;;;;;;62.20;34.53;;;;;;;;;;4999677;28;20132;-62
2021/12/21 04:40:44;;;;;;;61.85;35.67;;;;;;;;;;5002342;28;20051;-62
2021/12/21 04:43:10;;;;;;;50.50;33.15;;;;;;;;;;4997625;28;20439;-62
2021/12/21 04:45:36;;;;;;;57.85;31.80;;;;;;;;;;5004139;28;20045;-61
2021/12/21 04:48:02;;;;;;;55.17;32.05;;;;;;;;;;5000632;28;20477;-62
2021/12/21 04:50:29;;;;;;;57.55;31.70;;;;;;;;;;5003873;28;20042;-62
2021/12/21 04:52:55;;;;;;;52.72;32.70;;;;;;;;;;4997704;28;20042;-62
2021/12/21 04:55:21;;;;;;;54.90;33.05;;;;;;;;;;4981023;28;20045;-62
2021/12/21 04:57:47;;;;;;;50.42;29.95;;;;;;;;;;4995115;28;20046;-63
2021/12/21 05:00:14;;;;;;;54.40;31.27;;;;;;;;;;5020218;28;20057;-62
2021/12/21 05:02:40;;;;;;;57.92;31.70;;;;;;;;;;4991931;28;20137;-62
2021/12/21 05:05:06;;;;;;;53.28;30.38;;;;;;;;;;4992403;28;20056;-63
2021/12/21 05:07:35;;;;;;;42.05;26.55;;;;;;;;;;4995574;28;20054;-62
2021/12/21 05:10:02;;;;;;;46.22;27.70;;;;;;;;;;5001502;28;20049;-62
2021/12/21 05:12:29;;;;;;;50.63;29.80;;;;;;;;;;4995066;28;20112;-62
2021/12/21 05:14:55;;;;;;;46.53;27.98;;;;;;;;;;4996125;28;20950;-61
2021/12/21 05:17:22;;;;;;;49.83;28.48;;;;;;;;;;4990586;28;20045;-61
2021/12/21 05:19:48;;;;;;;48.22;29.45;;;;;;;;;;4993896;28;20403;-61
2021/12/21 05:22:15;;;;;;;46.47;27.48;;;;;;;;;;4998190;28;20245;-62
2021/12/21 05:24:41;;;;;;;48.65;29.48;;;;;;;;;;4993130;28;20049;-61
2021/12/21 05:27:08;;;;;;;47.38;30.08;;;;;;;;;;4993863;28;20361;-62
2021/12/21 05:29:34;;;;;;;50.97;31.08;;;;;;;;;;5000067;28;20305;-61
2021/12/21 05:32:00;;;;;;;44.55;24.58;;;;;;;;;;4979967;28;20053;-61
2021/12/21 05:34:27;;;;;;;52.25;28.65;;;;;;;;;;4994793;28;20128;-61
2021/12/21 05:36:53;;;;;;;50.22;28.50;;;;;;;;;;4999503;28;20056;-61
2021/12/21 05:39:24;;;;;;;52.22;29.13;;;;;;;;;;4999027;28;20448;-61
2021/12/21 05:41:52;;;;;;;46.05;27.67;;;;;;;;;;4998206;28;20467;-61
2021/12/21 05:44:26;;;;;;;42.67;26.15;;;;;;;;;;4997558;28;20038;-61
2021/12/21 05:46:53;;;;;;;48.15;27.63;;;;;;;;;;4993442;28;20042;-61
2021/12/21 05:49:20;;;;;;;48.47;26.58;;;;;;;;;;4992979;28;20489;-60
2021/12/21 05:51:46;;;;;;;44.42;25.98;;;;;;;;;;4993925;28;20046;-61
2021/12/21 05:54:13;;;;;;;46.67;28.08;;;;;;;;;;4994402;28;20077;-61
2021/12/21 05:56:39;;;;;;;48.88;32.72;;;;;;;;;;4978254;28;20353;-61
2021/12/21 05:59:05;;;;;;;44.05;26.10;;;;;;;;;;5004240;28;20088;-62
2021/12/21 06:01:32;;;;;;;48.25;26.40;;;;;;;;;;4991618;28;20531;-61
2021/12/21 06:04:00;;;;;;;44.97;27.38;;;;;;;;;;4999614;28;20140;-61
2021/12/21 06:06:26;;;;;;;45.65;30.08;;;;;;;;;;5002248;28;20107;-61
2021/12/21 06:08:55;;;;;;;48.67;29.17;;;;;;;;;;4990726;28;20046;-62
2021/12/21 06:11:23;;;;;;;48.28;27.38;;;;;;;;;;4992335;28;20046;-62
2021/12/21 06:27:21;;;;;;;38.30;23.10;;;;;;;;;;4994389;28;20050;-62
2021/12/21 06:29:47;;;;;;;34.05;22.98;;;;;;;;;;4999225;28;20459;-62
2021/12/21 06:32:13;;;;;;;39.28;23.40;;;;;;;;;;4992782;28;21376;-61
2021/12/21 06:34:40;;;;;;;43.85;22.98;;;;;;;;;;4994849;28;20068;-62
2021/12/21 06:37:06;;;;;;;37.60;23.00;;;;;;;;;;5002289;28;20046;-62
2021/12/21 06:39:33;;;;;;;36.20;21.98;;;;;;;;;;4998974;28;20038;-61
2021/12/21 06:41:59;;;;;;;38.90;23.60;;;;;;;;;;5002980;28;20038;-61
2021/12/21 06:44:25;;;;;;;39.65;22.13;;;;;;;;;;5019488;28;20072;-61
2021/12/21 06:52:21;;;;;;;33.85;21.33;;;;;;;;;;5003409;28;20148;-62
2021/12/21 06:54:48;;;;;;;35.97;21.02;;;;;;;;;;4986090;28;20042;-61
2021/12/21 06:57:14;;;;;;;40.22;21.98;;;;;;;;;;5001124;28;20097;-61
2021/12/21 06:59:40;;;;;;;34.97;21.10;;;;;;;;;;4998139;28;20483;-61
2021/12/21 07:02:06;;;;;;;34.85;20.52;;;;;;;;;;5004465;28;20033;-61
2021/12/21 07:04:32;;;;;;;33.53;20.15;;;;;;;;;;4996760;28;20132;-61
2021/12/21 07:06:59;;;;;;;34.42;22.92;;;;;;;;;;4999710;28;20030;-60
2021/12/21 07:12:11;;;;;;;36.25;22.60;;;;;;;;;;5006915;28;20093;-62
2021/12/21 07:20:10;;;;;;;41.15;25.02;;;;;;;;;;5004345;28;20049;-60
2021/12/21 07:22:36;;;;;;;32.20;24.20;;;;;;;;;;5002334;28;20419;-60
2021/12/21 07:25:03;;;;;;;41.38;25.02;;;;;;;;;;4999716;28;20042;-60
2021/12/21 07:27:29;;;;;;;37.78;25.35;;;;;;;;;;5000900;28;20038;-60
2021/12/21 07:29:55;;;;;;;39.72;25.27;;;;;;;;;;4994563;28;20042;-59
2021/12/21 07:32:21;;;;;;;39.60;25.92;;;;;;;;;;4996676;28;20100;-60
2021/12/21 07:34:47;;;;;;;40.35;24.58;;;;;;;;;;5003485;28;20581;-59
2021/12/21 07:37:13;;;;;;;42.47;27.77;;;;;;;;;;4999784;28;20499;-60
2021/12/21 07:39:39;;;;;;;46.30;27.85;;;;;;;;;;5003249;28;20081;-60
2021/12/21 07:42:05;;;;;;;38.78;26.60;;;;;;;;;;5000827;28;20045;-61
2021/12/21 07:44:32;;;;;;;45.13;27.48;;;;;;;;;;4999186;28;20038;-60
2021/12/21 07:46:58;;;;;;;36.42;25.73;;;;;;;;;;4998961;28;20034;-60
2021/12/21 07:49:24;;;;;;;41.97;27.40;;;;;;;;;;4995190;28;20042;-59
2021/12/21 07:51:50;;;;;;;40.03;28.05;;;;;;;;;;4991674;28;20488;-61
2021/12/21 07:54:17;;;;;;;43.85;27.60;;;;;;;;;;4990143;28;20385;-61
2021/12/21 07:56:44;;;;;;;42.25;28.15;;;;;;;;;;4990073;28;20507;-61
2021/12/21 07:59:11;;;;;;;40.53;28.13;;;;;;;;;;4989942;28;20074;-61
2021/12/21 08:01:38;;;;;;;41.53;26.95;;;;;;;;;;4993122;28;20046;-61
2021/12/21 08:04:06;;;;;;;39.08;26.60;;;;;;;;;;4995931;28;20050;-59
2021/12/21 08:06:33;;;;;;;48.83;29.50;;;;;;;;;;4998002;28;20130;-60
2021/12/21 08:09:01;;;;;;;41.35;28.80;;;;;;;;;;4982551;28;20046;-60
2021/12/21 08:14:13;;;;;;;47.67;28.73;;;;;;;;;;4991147;28;20054;-59
2021/12/21 08:16:39;;;;;;;42.28;27.65;;;;;;;;;;4996391;28;20053;-63
2021/12/21 08:19:05;;;;;;;47.72;27.95;;;;;;;;;;4994342;28;20524;-60
2021/12/21 08:21:32;;;;;;;41.78;27.85;;;;;;;;;;4999507;28;20405;-60
2021/12/21 08:23:58;;;;;;;45.20;27.35;;;;;;;;;;4997144;28;20108;-62
2021/12/21 08:26:24;;;;;;;39.78;28.85;;;;;;;;;;5001176;28;20053;-59
2021/12/21 08:28:50;;;;;;;44.25;28.52;;;;;;;;;;4998136;28;20061;-60
2021/12/21 08:31:16;;;;;;;45.60;29.88;;;;;;;;;;4975309;28;20639;-59
2021/12/21 08:33:43;;;;;;;41.95;29.33;;;;;;;;;;4990197;28;20054;-60
2021/12/21 08:36:10;;;;;;;41.42;28.73;;;;;;;;;;4996334;28;20117;-59
2021/12/21 08:38:38;;;;;;;48.45;30.40;;;;;;;;;;4999598;28;20104;-59
2021/12/21 08:41:05;;;;;;;42.22;29.25;;;;;;;;;;4994125;28;20053;-59
2021/12/21 08:43:32;;;;;;;44.83;29.88;;;;;;;;;;5000939;28;20094;-59
2021/12/21 08:45:59;;;;;;;47.70;29.02;;;;;;;;;;4985384;28;20556;-60
2021/12/21 08:48:26;;;;;;;50.30;31.67;;;;;;;;;;4992157;28;20044;-62
2021/12/21 08:50:54;;;;;;;41.40;26.35;;;;;;;;;;5000688;28;20694;-62
2021/12/21 08:53:20;;;;;;;45.53;29.42;;;;;;;;;;4998641;28;20046;-62
2021/12/21 08:55:46;;;;;;;44.47;27.05;;;;;;;;;;4997287;28;20046;-62
2021/12/21 08:58:13;;;;;;;41.38;27.23;;;;;;;;;;4980069;28;20428;-62
2021/12/21 09:00:40;;;;;;;37.20;24.63;;;;;;;;;;5004249;28;20049;-63
2021/12/21 09:03:06;;;;;;;40.00;24.42;;;;;;;;;;5005451;28;20586;-62
2021/12/21 09:05:33;;;;;;;37.33;22.60;;;;;;;;;;4990696;28;20037;-61
2021/12/21 09:08:00;;;;;;;41.58;27.40;;;;;;;;;;5005601;28;20054;-62
2021/12/21 09:10:27;;;;;;;44.78;27.98;;;;;;;;;;4990390;28;20374;-62
2021/12/21 09:12:53;;;;;;;42.15;25.85;;;;;;;;;;4990425;28;20129;-62
2021/12/21 09:15:20;;;;;;;33.50;24.13;;;;;;;;;;4990010;28;20096;-60
2021/12/21 09:17:47;;;;;;;36.88;22.83;;;;;;;;;;4989928;28;20046;-60
2021/12/21 09:20:17;;;;;;;41.88;24.67;;;;;;;;;;4988569;28;20428;-60
2021/12/21 09:22:43;;;;;;;39.45;27.52;;;;;;;;;;4990563;28;20046;-60
2021/12/21 09:25:10;;;;;;;43.08;28.98;;;;;;;;;;4989906;28;20042;-60
2021/12/21 09:27:37;;;;;;;38.40;26.63;;;;;;;;;;4988697;28;20111;-60
2021/12/21 09:30:04;;;;;;;38.72;25.23;;;;;;;;;;4989747;28;20054;-60
2021/12/21 09:32:30;;;;;;;29.25;19.88;;;;;;;;;;4990028;28;20575;-60
2021/12/21 09:34:56;;;;;;;35.75;22.23;;;;;;;;;;4990084;28;20531;-60
2021/12/21 09:37:23;;;;;;;34.78;23.70;;;;;;;;;;4989382;28;20504;-60
2021/12/21 09:39:54;;;;;;;42.22;22.75;;;;;;;;;;5005099;28;20042;-60
2021/12/21 09:42:21;;;;;;;33.20;19.40;;;;;;;;;;4989960;28;20189;-60
2021/12/21 09:44:48;;;;;;;31.20;21.63;;;;;;;;;;4989652;28;20121;-60
2021/12/21 09:47:14;;;;;;;28.17;17.90;;;;;;;;;;4988097;28;20042;-61
2021/12/21 09:49:41;;;;;;;27.00;16.35;;;;;;;;;;4990008;28;20393;-63
2021/12/21 09:52:08;;;;;;;28.58;20.10;;;;;;;;;;4988194;28;20515;-62
2021/12/21 09:54:34;;;;;;;28.23;17.02;;;;;;;;;;4988200;28;20050;-63
2021/12/21 09:57:00;;;;;;;32.00;18.17;;;;;;;;;;5004572;28;20125;-63
2021/12/21 09:59:27;;;;;;;37.47;17.70;;;;;;;;;;4973397;28;20345;-63
2021/12/21 10:01:56;;;;;;;25.13;14.32;;;;;;;;;;5004455;28;20050;-62
2021/12/21 10:04:22;;;;;;;29.02;16.45;;;;;;;;;;4987392;28;20066;-63
2021/12/21 10:06:50;;;;;;;28.33;15.73;;;;;;;;;;4989429;28;20050;-63
2021/12/21 10:09:20;;;;;;;20.38;13.85;;;;;;;;;;4987887;28;20121;-63
2021/12/21 10:11:48;;;;;;;22.45;12.57;;;;;;;;;;4987958;28;20054;-63
2021/12/21 10:14:15;;;;;;;20.85;11.38;;;;;;;;;;4992163;28;20512;-63
2021/12/21 10:16:42;;;;;;;20.08;10.32;;;;;;;;;;4994299;28;20082;-63
2021/12/21 10:19:08;;;;;;;13.82;8.93;;;;;;;;;;4992653;28;20046;-62
2021/12/21 10:21:44;;;;;;;18.63;9.20;;;;;;;;;;4994646;28;20039;-63
2021/12/21 10:24:10;;;;;;;15.55;7.30;;;;;;;;;;4994601;28;20049;-63
2021/12/21 10:26:36;;;;;;;15.50;7.40;;;;;;;;;;4993160;28;20061;-62
2021/12/21 10:29:07;;;;;;;14.30;6.07;;;;;;;;;;4993119;28;20046;-64
2021/12/21 10:31:36;;;;;;;16.70;6.40;;;;;;;;;;4994517;28;20597;-63
2021/12/21 10:34:03;;;;;;;9.82;4.38;;;;;;;;;;4992751;28;20051;-61
2021/12/21 10:36:30;;;;;;;11.93;4.97;;;;;;;;;;5007948;28;20049;-61
2021/12/21 10:38:57;;;;;;;15.35;4.82;;;;;;;;;;4992822;28;20085;-61
2021/12/21 10:41:26;;;;;;;11.50;4.05;;;;;;;;;;4992306;28;20133;-61
2021/12/21 10:43:59;;;;;;;12.55;4.20;;;;;;;;;;4992997;28;20278;-62
2021/12/21 10:46:27;;;;;;;9.85;4.32;;;;;;;;;;4991131;28;20569;-61
2021/12/21 10:49:04;;;;;;;10.88;3.88;;;;;;;;;;4992832;28;20042;-61
2021/12/21 10:51:30;;;;;;;10.77;3.75;;;;;;;;;;4976690;28;20597;-61
2021/12/21 10:53:56;;;;;;;12.32;3.95;;;;;;;;;;4992661;28;20038;-61
2021/12/21 10:56:22;;;;;;;10.50;3.47;;;;;;;;;;4992299;28;20476;-61
2021/12/21 10:58:48;;;;;;;11.85;3.45;;;;;;;;;;4992120;28;20042;-61
2021/12/21 11:01:25;;;;;;;9.82;3.58;;;;;;;;;;4992541;28;20039;-61
2021/12/21 11:03:55;;;;;;;10.32;3.53;;;;;;;;;;4992485;28;20124;-63
2021/12/21 11:06:24;;;;;;;10.68;3.13;;;;;;;;;;4991958;28;20065;-62
2021/12/21 11:08:53;;;;;;;11.10;3.97;;;;;;;;;;4990880;28;20611;-63
2021/12/21 11:11:47;;;;;;;13.35;4.38;;;;;;;;;;4991981;28;20500;-63
2021/12/21 11:14:18;;;;;;;12.45;7.53;;;;;;;;;;4991990;28;20197;-63
2021/12/21 11:16:46;;;;;;;13.27;5.35;;;;;;;;;;4991752;28;20050;-61
2021/12/21 11:19:15;;;;;;;10.65;4.22;;;;;;;;;;4991689;28;20062;-61
2021/12/21 11:21:42;;;;;;;8.15;4.13;;;;;;;;;;4990794;28;20125;-61
2021/12/21 11:24:09;;;;;;;10.00;3.50;;;;;;;;;;4991821;28;20473;-61
2021/12/21 11:26:36;;;;;;;10.02;3.25;;;;;;;;;;4991357;28;20077;-61
2021/12/21 11:29:04;;;;;;;9.80;3.63;;;;;;;;;;4990206;28;20053;-62
2021/12/21 11:31:30;;;;;;;8.05;3.30;;;;;;;;;;5006926;28;20038;-61
2021/12/21 11:33:58;;;;;;;10.18;3.60;;;;;;;;;;4990345;28;20100;-61
2021/12/21 11:39:10;;;;;;;8.95;3.25;;;;;;;;;;4991540;28;20062;-62
2021/12/21 11:41:37;;;;;;;8.85;3.28;;;;;;;;;;5006561;28;20038;-62
2021/12/21 11:44:21;;;;;;;11.05;3.40;;;;;;;;;;4991476;28;20038;-61
2021/12/21 11:46:55;;;;;;;9.80;3.63;;;;;;;;;;4990040;28;20050;-62
2021/12/21 11:49:31;;;;;;;9.88;3.30;;;;;;;;;;4991236;28;20058;-61
2021/12/21 11:52:29;;;;;;;8.02;3.40;;;;;;;;;;4990228;28;20042;-63
2021/12/21 11:54:57;;;;;;;9.05;3.90;;;;;;;;;;5000283;28;20051;-63
2021/12/21 11:57:38;;;;;;;9.93;3.58;;;;;;;;;;4989944;28;20129;-63
2021/12/21 12:00:12;;;;;;;9.02;3.42;;;;;;;;;;4991245;28;20508;-63
2021/12/21 12:02:39;;;;;;;8.88;3.22;;;;;;;;;;4990878;28;20034;-63
2021/12/21 12:05:18;;;;;;;7.68;2.78;;;;;;;;;;4991201;28;20457;-62
2021/12/21 12:07:44;;;;;;;7.88;3.13;;;;;;;;;;4989736;28;20046;-62
2021/12/21 12:10:15;;;;;;;8.32;3.30;;;;;;;;;;5005983;28;20050;-62
2021/12/21 12:12:41;;;;;;;10.88;3.65;;;;;;;;;;4989645;28;20615;-62
2021/12/21 12:15:09;;;;;;;8.25;3.53;;;;;;;;;;4990418;28;20141;-62
2021/12/21 12:17:45;;;;;;;9.35;3.97;;;;;;;;;;4989326;28;20041;-62
2021/12/21 12:20:12;;;;;;;8.23;2.88;;;;;;;;;;4989463;28;20062;-62
2021/12/21 12:22:39;;;;;;;9.20;3.53;;;;;;;;;;4990783;28;20730;-62
2021/12/21 12:25:26;;;;;;;7.63;3.13;;;;;;;;;;4989159;28;20073;-63
2021/12/21 12:27:53;;;;;;;7.88;3.28;;;;;;;;;;4990347;28;20523;-62
2021/12/21 12:30:21;;;;;;;12.38;3.80;;;;;;;;;;5006060;28;20396;-62
2021/12/21 12:32:59;;;;;;;8.88;3.25;;;;;;;;;;5006263;28;20162;-61
2021/12/21 12:35:27;;;;;;;10.23;3.47;;;;;;;;;;4990854;28;20042;-61
2021/12/21 12:38:15;;;;;;;8.82;3.30;;;;;;;;;;4989991;28;20046;-62
2021/12/21 12:40:42;;;;;;;7.90;3.80;;;;;;;;;;4990338;28;20062;-61
2021/12/21 12:43:32;;;;;;;7.80;3.58;;;;;;;;;;4989106;28;20050;-62
2021/12/21 12:46:02;;;;;;;9.43;3.70;;;;;;;;;;4997507;28;20511;-61
2021/12/21 12:48:42;;;;;;;7.35;3.50;;;;;;;;;;5001873;28;20045;-62
2021/12/21 12:51:09;;;;;;;8.07;3.38;;;;;;;;;;4992227;28;20083;-61
2021/12/21 12:53:37;;;;;;;10.70;3.50;;;;;;;;;;4990696;28;20121;-61
2021/12/21 12:56:04;;;;;;;8.02;3.25;;;;;;;;;;4998071;28;20053;-62
2021/12/21 12:58:30;;;;;;;11.23;4.15;;;;;;;;;;4998575;28;20502;-62
2021/12/21 13:01:02;;;;;;;8.98;3.30;;;;;;;;;;5001877;28;20057;-62
2021/12/21 13:03:33;;;;;;;11.02;4.20;;;;;;;;;;4998748;28;20058;-62
2021/12/21 13:06:00;;;;;;;14.35;4.93;;;;;;;;;;5013884;28;20075;-63
2021/12/21 13:08:27;;;;;;;9.50;3.85;;;;;;;;;;5013854;28;20476;-63
2021/12/21 13:10:55;;;;;;;10.25;4.28;;;;;;;;;;4990995;28;20501;-62
2021/12/21 13:13:30;;;;;;;11.27;4.63;;;;;;;;;;4990007;28;20054;-63
2021/12/21 13:15:56;;;;;;;10.00;3.80;;;;;;;;;;4990430;28;20492;-62
2021/12/21 13:18:22;;;;;;;10.48;3.75;;;;;;;;;;4996944;28;20041;-62
2021/12/21 13:20:50;;;;;;;11.38;4.38;;;;;;;;;;5003771;28;20042;-62
2021/12/21 13:23:16;;;;;;;10.85;4.15;;;;;;;;;;4997940;28;20069;-62
2021/12/21 13:26:02;;;;;;;8.65;3.90;;;;;;;;;;4996462;28;20460;-62
2021/12/21 13:28:30;;;;;;;10.52;4.07;;;;;;;;;;4996624;28;20060;-62
2021/12/21 13:31:00;;;;;;;9.43;3.97;;;;;;;;;;5003805;28;20046;-62
2021/12/21 13:33:27;;;;;;;8.57;4.07;;;;;;;;;;4998185;28;20484;-62
2021/12/21 13:36:05;;;;;;;8.57;4.22;;;;;;;;;;5000237;28;20122;-62
2021/12/21 13:38:32;;;;;;;8.30;3.92;;;;;;;;;;4996847;28;20046;-63
2021/12/21 13:41:14;;;;;;;8.13;4.20;;;;;;;;;;4994258;28;20077;-62
2021/12/21 13:44:02;;;;;;;8.13;3.70;;;;;;;;;;5012965;28;20038;-62
2021/12/21 13:46:33;;;;;;;12.75;4.18;;;;;;;;;;4986669;28;20259;-62
2021/12/21 13:48:59;;;;;;;11.60;4.45;;;;;;;;;;4970311;28;20050;-63
2021/12/21 13:51:25;;;;;;;10.88;5.00;;;;;;;;;;4988553;28;20099;-61
2021/12/21 13:53:54;;;;;;;11.13;4.47;;;;;;;;;;4999008;28;20073;-62
2021/12/21 13:56:24;;;;;;;10.48;4.47;;;;;;;;;;4993127;28;20081;-62
2021/12/21 13:58:54;;;;;;;12.38;4.72;;;;;;;;;;5005056;28;20047;-62
2021/12/21 14:01:23;;;;;;;10.48;4.68;;;;;;;;;;4987947;28;20042;-62
2021/12/21 14:03:52;;;;;;;10.73;4.65;;;;;;;;;;4988082;28;20595;-62
2021/12/21 14:06:22;;;;;;;11.07;5.05;;;;;;;;;;4989706;28;20042;-62
2021/12/21 14:08:49;;;;;;;8.77;4.38;;;;;;;;;;4988471;28;20043;-62
2021/12/21 14:11:15;;;;;;;7.68;4.57;;;;;;;;;;4989360;28;20042;-61
2021/12/21 14:13:46;;;;;;;9.88;4.90;;;;;;;;;;4989485;28;20473;-62
2021/12/21 14:16:23;;;;;;;12.07;4.63;;;;;;;;;;4991799;28;20117;-62
2021/12/21 14:18:50;;;;;;;13.18;4.85;;;;;;;;;;4992020;28;20041;-62
2021/12/21 14:21:21;;;;;;;13.68;5.50;;;;;;;;;;4994452;28;20507;-62
2021/12/21 14:23:52;;;;;;;9.95;5.13;;;;;;;;;;4993867;28;20042;-62
2021/12/21 14:26:21;;;;;;;10.55;5.70;;;;;;;;;;4995942;28;20038;-62
2021/12/21 14:28:55;;;;;;;11.73;5.35;;;;;;;;;;4994823;28;20030;-62
2021/12/21 14:31:23;;;;;;;11.55;6.13;;;;;;;;;;4996450;28;20038;-62
2021/12/21 14:33:50;;;;;;;14.65;6.15;;;;;;;;;;5000001;28;20034;-62
2021/12/21 14:36:20;;;;;;;11.20;6.28;;;;;;;;;;4989192;28;20396;-62
2021/12/21 14:39:06;;;;;;;9.25;5.68;;;;;;;;;;4989259;28;20097;-62
2021/12/21 14:41:39;;;;;;;12.18;6.40;;;;;;;;;;4987800;28;20046;-62
2021/12/21 14:44:05;;;;;;;;;;;;;;;;;;4988246;28;20042;-61
2021/12/21 14:46:32;;;;;;;13.80;6.60;;;;;;;;;;4988383;28;19917;-61
2021/12/21 14:49:07;;;;;;;13.30;7.15;;;;;;;;;;4988669;28;20129;-61
2021/12/21 14:51:52;;;;;;;13.25;6.95;;;;;;;;;;4989741;28;20130;-61
2021/12/21 14:54:28;;;;;;;14.45;7.32;;;;;;;;;;4989853;28;20056;-61
2021/12/21 14:57:01;;;;;;;14.25;7.32;;;;;;;;;;4989869;28;20096;-60
2021/12/21 14:59:32;;;;;;;15.90;7.47;;;;;;;;;;4988284;28;20050;-60
2021/12/21 15:02:05;;;;;;;12.20;7.45;;;;;;;;;;5007196;28;20480;-61
2021/12/21 15:04:32;;;;;;;14.52;7.13;;;;;;;;;;4991726;28;20564;-61
2021/12/21 15:06:58;;;;;;;13.45;8.07;;;;;;;;;;4991739;28;20053;-61
2021/12/21 15:09:25;;;;;;;16.02;8.38;;;;;;;;;;4993175;28;20053;-61
2021/12/21 15:11:53;;;;;;;18.05;8.63;;;;;;;;;;4992636;28;20046;-61
2021/12/21 15:14:20;;;;;;;18.75;9.13;;;;;;;;;;4991439;28;20069;-61
2021/12/21 15:16:46;;;;;;;13.30;9.05;;;;;;;;;;4991419;28;20121;-62
2021/12/21 15:19:12;;;;;;;17.17;10.20;;;;;;;;;;4992538;28;20105;-62
2021/12/21 15:21:39;;;;;;;17.90;10.20;;;;;;;;;;4977820;28;20097;-62
2021/12/21 15:24:05;;;;;;;22.10;11.60;;;;;;;;;;4997159;28;20129;-63
2021/12/21 15:26:31;;;;;;;23.23;11.10;;;;;;;;;;4995602;28;20510;-62
2021/12/21 15:28:58;;;;;;;18.58;11.45;;;;;;;;;;4997702;28;20405;-62
2021/12/21 15:31:25;;;;;;;23.35;11.88;;;;;;;;;;4999245;28;20042;-61
2021/12/21 15:33:51;;;;;;;17.75;10.63;;;;;;;;;;4999097;28;20527;-61
2021/12/21 15:36:17;;;;;;;23.23;12.15;;;;;;;;;;4997038;28;20472;-62